createdAt,value
2018-02-14T00:02:10.848Z,23.17
2018-02-14T00:04:38.444Z,21.60
2018-02-14T00:07:06.795Z,21.17
2018-02-14T00:09:34.328Z,23.75
2018-02-14T00:12:01.907Z,27.20
2018-02-14T00:14:29.446Z,23.85
2018-02-14T00:16:57.023Z,21.80
2018-02-14T00:19:24.558Z,20.85
2018-02-14T00:21:52.153Z,26.92
2018-02-14T00:24:19.684Z,26.85
2018-02-14T00:26:47.222Z,18.65
2018-02-14T00:29:14.803Z,21.95
2018-02-14T00:31:42.419Z,27.58
2018-02-14T00:34:10.724Z,22.13
2018-02-14T00:36:38.265Z,28.42
2018-02-14T00:39:06.682Z,20.85
2018-02-14T00:41:34.260Z,20.73
2018-02-14T00:44:01.799Z,21.95
2018-02-14T00:46:29.376Z,19.77
2018-02-14T00:48:56.914Z,21.33
2018-02-14T00:51:24.495Z,20.62
2018-02-14T00:53:52.038Z,20.83
2018-02-14T00:56:19.624Z,23.30
2018-02-14T00:58:47.169Z,22.05
2018-02-14T01:01:14.739Z,22.30
2018-02-14T01:03:42.275Z,21.45
2018-02-14T01:06:09.884Z,19.48
2018-02-14T01:08:38.192Z,28.42
2018-02-14T01:11:05.734Z,27.67
2018-02-14T01:13:34.074Z,27.10
2018-02-14T01:16:01.618Z,22.58
2018-02-14T01:18:29.194Z,23.50
2018-02-14T01:20:56.735Z,26.08
2018-02-14T01:23:24.307Z,23.00
2018-02-14T01:25:51.845Z,26.05
2018-02-14T01:28:19.436Z,29.65
2018-02-14T01:30:46.978Z,28.73
2018-02-14T01:33:14.546Z,25.23
2018-02-14T01:35:42.077Z,26.52
2018-02-14T01:38:09.660Z,25.05
2018-02-14T01:40:37.198Z,23.95
2018-02-14T01:43:04.792Z,23.92
2018-02-14T01:45:32.354Z,21.67
2018-02-14T01:48:01.466Z,26.08
2018-02-14T01:50:39.016Z,25.80
2018-02-14T01:53:06.602Z,27.73
2018-02-14T01:55:34.140Z,25.55
2018-02-14T01:58:01.720Z,29.27
2018-02-14T02:00:29.254Z,24.35
2018-02-14T02:02:56.831Z,25.48
2018-02-14T02:05:24.364Z,26.87
2018-02-14T02:10:24.682Z,22.27
2018-02-14T02:12:53.034Z,25.92
2018-02-14T02:15:20.567Z,22.73
2018-02-14T02:17:48.153Z,22.83
2018-02-14T02:20:15.695Z,23.75
2018-02-14T02:22:43.273Z,24.17
2018-02-14T02:25:10.809Z,23.02
2018-02-14T02:27:38.350Z,29.02
2018-02-14T02:30:05.936Z,26.08
2018-02-14T02:32:33.509Z,26.20
2018-02-14T02:35:01.092Z,20.67
2018-02-14T02:37:29.396Z,26.42
2018-02-14T02:40:08.930Z,22.58
2018-02-14T02:42:36.510Z,29.77
2018-02-14T02:45:04.049Z,24.25
2018-02-14T02:47:31.625Z,23.62
2018-02-14T02:49:59.154Z,21.77
2018-02-14T02:52:27.500Z,25.60
2018-02-14T02:54:55.037Z,29.73
2018-02-14T02:57:22.580Z,23.48
2018-02-14T02:59:50.165Z,25.10
2018-02-14T03:02:17.749Z,22.92
2018-02-14T03:04:46.059Z,24.37
2018-02-14T03:07:13.605Z,25.02
2018-02-14T03:09:41.955Z,26.90
2018-02-14T03:12:09.486Z,23.27
2018-02-14T03:14:37.080Z,22.92
2018-02-14T03:17:04.629Z,28.08
2018-02-14T03:19:32.230Z,25.62
2018-02-14T03:21:59.777Z,28.38
2018-02-14T03:24:28.131Z,23.42
2018-02-14T03:26:55.682Z,27.58
2018-02-14T03:29:23.276Z,28.55
2018-02-14T03:31:51.588Z,24.67
2018-02-14T03:34:19.178Z,32.03
2018-02-14T03:36:46.731Z,22.48
2018-02-14T03:39:14.313Z,24.37
2018-02-14T03:41:41.902Z,25.95
2018-02-14T03:44:09.451Z,24.40
2018-02-14T03:46:37.800Z,32.80
2018-02-14T03:49:05.348Z,31.10
2018-02-14T03:51:32.923Z,25.52
2018-02-14T03:54:00.463Z,23.95
2018-02-14T03:56:28.049Z,24.63
2018-02-14T03:58:56.358Z,23.08
2018-02-14T04:01:23.945Z,24.58
2018-02-14T04:03:51.496Z,28.90
2018-02-14T04:06:19.196Z,25.70
2018-02-14T04:08:46.745Z,28.92
2018-02-14T04:11:14.284Z,22.95
2018-02-14T04:13:41.867Z,23.87
2018-02-14T04:16:09.399Z,24.65
2018-02-14T04:18:36.991Z,22.33
2018-02-14T04:21:04.541Z,22.25
2018-02-14T04:23:32.130Z,25.70
2018-02-14T04:26:00.433Z,25.15
2018-02-14T04:28:28.016Z,24.87
2018-02-14T04:30:55.559Z,25.08
2018-02-14T04:33:23.139Z,25.62
2018-02-14T04:35:50.691Z,23.10
2018-02-14T04:38:18.291Z,23.08
2018-02-14T04:40:45.857Z,22.27
2018-02-14T04:43:14.303Z,22.35
2018-02-14T04:45:41.855Z,22.65
2018-02-14T04:48:09.456Z,26.80
2018-02-14T04:50:37.002Z,21.20
2018-02-14T04:53:04.605Z,29.08
2018-02-14T04:55:32.918Z,21.40
2018-02-14T04:58:00.510Z,22.00
2018-02-14T05:00:28.061Z,28.62
2018-02-14T05:02:55.662Z,25.45
2018-02-14T05:05:23.967Z,22.55
2018-02-14T05:07:51.564Z,22.27
2018-02-14T05:10:19.114Z,22.58
2018-02-14T05:12:46.722Z,23.10
2018-02-14T05:15:15.032Z,26.17
2018-02-14T05:17:42.624Z,22.73
2018-02-14T05:20:11.706Z,24.05
2018-02-14T05:22:39.311Z,24.42
2018-02-14T05:25:07.613Z,27.08
2018-02-14T05:27:35.215Z,28.00
2018-02-14T05:30:02.755Z,23.77
2018-02-14T05:32:30.336Z,22.33
2018-02-14T05:34:59.387Z,24.15
2018-02-14T05:37:26.982Z,23.92
2018-02-14T05:39:54.521Z,25.08
2018-02-14T05:42:22.112Z,24.98
2018-02-14T05:44:49.654Z,29.05
2018-02-14T05:47:17.236Z,28.02
2018-02-14T05:49:44.855Z,25.05
2018-02-14T05:52:12.443Z,28.42
2018-02-14T05:54:39.985Z,28.67
2018-02-14T05:57:07.569Z,24.95
2018-02-14T05:59:35.127Z,24.10
2018-02-14T06:02:02.707Z,25.27
2018-02-14T06:04:31.019Z,26.35
2018-02-14T06:06:58.615Z,30.33
2018-02-14T06:09:26.164Z,23.73
2018-02-14T06:11:55.827Z,26.98
2018-02-14T06:14:24.151Z,26.12
2018-02-14T06:16:51.797Z,30.45
2018-02-14T06:19:19.346Z,25.98
2018-02-14T06:21:46.939Z,27.45
2018-02-14T06:24:14.493Z,26.90
2018-02-14T06:26:42.043Z,29.17
2018-02-14T06:29:09.624Z,22.95
2018-02-14T06:31:37.206Z,26.00
2018-02-14T06:34:04.752Z,31.87
2018-02-14T06:36:32.342Z,25.90
2018-02-14T06:39:00.660Z,26.30
2018-02-14T06:41:28.215Z,22.80
2018-02-14T06:43:55.799Z,26.25
2018-02-14T06:46:23.357Z,33.63
2018-02-14T06:48:50.943Z,26.98
2018-02-14T06:51:19.264Z,31.73
2018-02-14T06:53:46.852Z,31.87
2018-02-14T06:56:14.400Z,37.75
2018-02-14T06:58:41.996Z,37.10
2018-02-14T07:01:09.534Z,40.47
2018-02-14T07:03:37.119Z,31.00
2018-02-14T07:06:04.660Z,36.90
2018-02-14T07:08:32.247Z,36.90
2018-02-14T07:11:00.560Z,32.58
2018-02-14T07:13:28.153Z,27.90
2018-02-14T07:15:56.488Z,30.33
2018-02-14T07:18:24.092Z,27.85
2018-02-14T07:20:51.700Z,28.20
2018-02-14T07:23:24.972Z,35.53
2018-02-14T07:25:53.324Z,34.88
2018-02-14T07:28:20.870Z,30.10
2018-02-14T07:30:48.469Z,31.55
2018-02-14T07:33:16.779Z,24.05
2018-02-14T07:35:44.366Z,39.40
2018-02-14T07:38:11.909Z,32.13
2018-02-14T07:40:39.506Z,26.62
2018-02-14T07:43:07.068Z,27.02
2018-02-14T07:45:34.658Z,26.37
2018-02-14T07:48:03.098Z,24.92
2018-02-14T07:50:30.645Z,31.02
2018-02-14T07:52:59.028Z,40.40
2018-02-14T07:55:26.963Z,25.35
2018-02-14T07:57:54.564Z,26.25
2018-02-14T08:00:22.108Z,30.05
2018-02-14T08:02:49.716Z,34.10
2018-02-14T08:05:18.024Z,28.58
2018-02-14T08:07:45.611Z,26.20
2018-02-14T08:10:13.472Z,27.73
2018-02-14T08:12:41.949Z,26.33
2018-02-14T08:15:09.563Z,23.70
2018-02-14T08:17:38.088Z,25.95
2018-02-14T08:20:05.628Z,24.98
2018-02-14T08:22:33.250Z,22.35
2018-02-14T08:25:00.820Z,25.00
2018-02-14T08:27:29.188Z,35.40
2018-02-14T08:29:56.731Z,24.80
2018-02-14T08:32:24.319Z,26.62
2018-02-14T08:34:52.672Z,27.95
2018-02-14T08:37:20.219Z,27.50
2018-02-14T08:39:47.804Z,25.90
2018-02-14T08:42:15.398Z,25.65
2018-02-14T08:44:42.943Z,28.75
2018-02-14T08:47:11.300Z,31.52
2018-02-14T08:49:38.839Z,30.45
2018-02-14T08:52:06.431Z,31.67
2018-02-14T08:54:36.613Z,29.52
2018-02-14T08:57:04.219Z,27.17
2018-02-14T08:59:32.527Z,36.28
2018-02-14T09:02:00.119Z,32.10
2018-02-14T09:04:27.671Z,32.67
2018-02-14T09:06:55.256Z,36.40
2018-02-14T09:09:22.797Z,33.38
2018-02-14T09:11:50.393Z,36.38
2018-02-14T09:14:18.711Z,45.50
2018-02-14T09:16:46.315Z,35.00
2018-02-14T09:19:13.852Z,33.80
2018-02-14T09:21:41.444Z,31.25
2018-02-14T09:24:09.007Z,26.30
2018-02-14T09:26:37.351Z,30.88
2018-02-14T09:29:04.897Z,29.23
2018-02-14T09:31:32.500Z,26.67
2018-02-14T09:34:00.042Z,37.53
2018-02-14T09:36:27.641Z,27.37
2018-02-14T09:38:55.967Z,27.13
2018-02-14T09:41:23.562Z,25.55
2018-02-14T09:43:51.104Z,30.67
2018-02-14T09:46:18.690Z,28.38
2018-02-14T09:48:47.007Z,31.62
2018-02-14T09:51:14.584Z,27.95
2018-02-14T09:53:42.131Z,27.33
2018-02-14T09:56:09.724Z,29.35
2018-02-14T09:58:38.777Z,25.62
2018-02-14T10:01:06.354Z,29.80
2018-02-14T10:03:33.896Z,29.98
2018-02-14T10:06:01.478Z,31.77
2018-02-14T10:08:29.022Z,28.02
2018-02-14T10:10:56.626Z,28.87
2018-02-14T10:13:24.168Z,35.42
2018-02-14T10:15:51.751Z,23.92
2018-02-14T10:18:20.053Z,29.48
2018-02-14T10:20:47.639Z,24.37
2018-02-14T10:23:15.176Z,24.33
2018-02-14T10:25:42.724Z,25.62
2018-02-14T10:28:11.064Z,22.67
2018-02-14T10:30:38.644Z,23.85
2018-02-14T10:33:06.979Z,19.42
2018-02-14T10:35:34.534Z,22.35
2018-02-14T10:38:02.128Z,26.95
2018-02-14T10:40:29.681Z,20.30
2018-02-14T10:42:57.258Z,18.98
2018-02-14T10:45:25.565Z,22.90
2018-02-14T10:47:53.212Z,22.50
2018-02-14T10:50:20.771Z,25.55
2018-02-14T10:52:49.116Z,24.37
2018-02-14T10:55:16.655Z,26.30
2018-02-14T10:57:44.236Z,21.58
2018-02-14T11:00:11.775Z,18.20
2018-02-14T11:02:44.955Z,28.08
2018-02-14T11:05:18.314Z,27.08
2018-02-14T11:07:46.619Z,19.15
2018-02-14T11:10:14.173Z,20.40
2018-02-14T11:12:41.759Z,21.48
2018-02-14T11:15:09.337Z,16.45
2018-02-14T11:17:36.910Z,16.77
2018-02-14T11:20:04.450Z,16.10
2018-02-14T11:22:32.091Z,17.02
2018-02-14T11:25:00.375Z,24.10
2018-02-14T11:27:27.951Z,19.95
2018-02-14T11:29:55.488Z,12.63
2018-02-14T11:32:23.052Z,9.45
2018-02-14T11:34:50.584Z,9.80
2018-02-14T11:37:18.263Z,8.95
2018-02-14T11:39:45.822Z,7.53
2018-02-14T11:42:13.401Z,7.57
2018-02-14T11:44:40.980Z,8.30
2018-02-14T11:47:08.521Z,9.10
2018-02-14T11:49:36.103Z,7.78
2018-02-14T11:52:03.676Z,12.43
2018-02-14T11:54:32.020Z,7.82
2018-02-14T11:56:59.600Z,10.02
2018-02-14T11:59:27.159Z,9.48
2018-02-14T12:01:55.511Z,7.30
2018-02-14T12:04:23.080Z,10.60
2018-02-14T12:06:50.620Z,10.77
2018-02-14T12:09:18.203Z,13.15
2018-02-14T12:11:45.785Z,9.05
2018-02-14T12:14:13.318Z,10.43
2018-02-14T12:16:40.894Z,12.35
2018-02-14T12:19:09.941Z,12.13
2018-02-14T12:21:37.519Z,11.52
2018-02-14T12:24:05.098Z,11.15
2018-02-14T12:26:32.675Z,10.93
2018-02-14T12:29:00.292Z,9.55
2018-02-14T12:31:27.888Z,11.25
2018-02-14T12:33:55.432Z,23.85
2018-02-14T12:36:23.006Z,12.32
2018-02-14T12:38:50.553Z,12.23
2018-02-14T12:41:18.944Z,11.90
2018-02-14T12:43:46.491Z,13.82
2018-02-14T12:46:14.042Z,13.77
2018-02-14T12:48:41.620Z,16.60
2018-02-14T12:51:10.701Z,12.37
2018-02-14T12:53:38.277Z,13.80
2018-02-14T12:56:05.823Z,15.50
2018-02-14T12:58:33.471Z,19.73
2018-02-14T13:01:01.014Z,14.63
2018-02-14T13:03:28.585Z,14.80
2018-02-14T13:05:56.165Z,14.30
2018-02-14T13:08:23.754Z,11.55
2018-02-14T13:10:52.064Z,14.75
2018-02-14T13:13:19.601Z,18.52
2018-02-14T13:15:47.958Z,17.42
2018-02-14T13:18:15.505Z,20.15
2018-02-14T13:20:43.054Z,13.88
2018-02-14T13:23:10.704Z,15.75
2018-02-14T13:25:38.244Z,17.33
2018-02-14T13:28:05.845Z,17.50
2018-02-14T13:30:33.397Z,22.00
2018-02-14T13:33:00.984Z,15.88
2018-02-14T13:35:28.511Z,15.90
2018-02-14T13:37:56.082Z,15.23
2018-02-14T13:40:23.631Z,13.80
2018-02-14T13:42:51.226Z,24.27
2018-02-14T13:45:18.767Z,18.62
2018-02-14T13:47:46.319Z,17.12
2018-02-14T13:50:13.901Z,19.95
2018-02-14T13:52:41.493Z,16.83
2018-02-14T13:55:09.056Z,17.40
2018-02-14T13:57:36.619Z,15.53
2018-02-14T14:00:04.227Z,17.10
2018-02-14T14:02:31.838Z,18.87
2018-02-14T14:04:59.425Z,17.37
2018-02-14T14:07:26.968Z,51.60
2018-02-14T14:09:54.546Z,15.77
2018-02-14T14:12:22.089Z,21.03
2018-02-14T14:14:49.676Z,16.50
2018-02-14T14:17:17.219Z,16.47
2018-02-14T14:19:44.805Z,15.00
2018-02-14T14:22:12.357Z,17.83
2018-02-14T14:24:39.949Z,15.63
2018-02-14T14:27:08.269Z,15.83
2018-02-14T14:29:35.864Z,14.80
2018-02-14T14:32:03.416Z,14.70
2018-02-14T14:34:30.971Z,16.27
2018-02-14T14:36:58.617Z,17.00
2018-02-14T14:39:26.159Z,17.43
2018-02-14T14:41:53.743Z,15.30
2018-02-14T14:44:21.322Z,16.63
2018-02-14T14:46:48.870Z,29.00
2018-02-14T14:49:16.639Z,23.90
2018-02-14T14:51:44.184Z,19.67
2018-02-14T14:54:11.723Z,20.40
2018-02-14T14:56:39.424Z,26.13
2018-02-14T14:59:07.008Z,17.80
2018-02-14T15:01:34.559Z,19.27
2018-02-14T15:04:02.201Z,20.87
2018-02-14T15:06:29.777Z,22.63
2018-02-14T15:08:57.319Z,23.33
2018-02-14T15:11:24.905Z,22.20
2018-02-14T15:13:52.438Z,22.10
2018-02-14T15:16:20.005Z,23.80
2018-02-14T15:18:47.531Z,23.20
2018-02-14T15:21:15.110Z,23.13
2018-02-14T15:23:42.686Z,22.20
2018-02-14T15:26:10.260Z,21.00
2018-02-14T15:28:37.797Z,26.23
2018-02-14T15:31:05.408Z,22.17
2018-02-14T15:33:33.727Z,21.30
2018-02-14T15:36:01.388Z,22.33
2018-02-14T15:38:28.978Z,24.70
2018-02-14T15:40:56.515Z,28.73
2018-02-14T15:43:24.091Z,24.93
2018-02-14T15:45:51.629Z,25.70
2018-02-14T15:48:19.208Z,21.93
2018-02-14T15:50:46.748Z,23.27
2018-02-14T15:53:14.294Z,28.80
2018-02-14T15:55:41.884Z,23.30
2018-02-14T15:58:09.426Z,27.57
2018-02-14T16:00:37.006Z,25.23
2018-02-14T16:03:04.578Z,27.20
2018-02-14T16:05:32.164Z,26.20
2018-02-14T16:08:00.484Z,29.30
2018-02-14T16:10:28.108Z,26.37
2018-02-14T16:12:56.406Z,21.93
2018-02-14T16:15:24.005Z,28.13
2018-02-14T16:17:51.548Z,27.30
2018-02-14T16:20:19.133Z,25.83
2018-02-14T16:22:46.681Z,26.52
2018-02-14T16:25:14.274Z,28.55
2018-02-14T16:27:42.593Z,25.17
2018-02-14T16:30:10.176Z,28.50
2018-02-14T16:32:37.719Z,29.73
2018-02-14T16:35:05.312Z,27.83
2018-02-14T16:37:32.861Z,29.15
2018-02-14T16:40:00.556Z,28.87
2018-02-14T16:42:28.117Z,26.73
2018-02-14T16:44:56.482Z,33.70
2018-02-14T16:47:24.795Z,29.40
2018-02-14T16:49:52.391Z,29.77
2018-02-14T16:52:19.935Z,33.55
2018-02-14T16:54:47.547Z,30.00
2018-02-14T16:57:15.870Z,27.75
2018-02-14T16:59:43.460Z,28.98
2018-02-14T17:02:11.009Z,28.55
2018-02-14T17:04:38.603Z,45.90
2018-02-14T17:07:06.913Z,40.80
2018-02-14T17:09:34.708Z,50.55
2018-02-14T17:12:02.335Z,67.18
2018-02-14T17:14:29.966Z,45.28
2018-02-14T17:16:58.274Z,42.33
2018-02-14T17:19:25.867Z,46.85
2018-02-14T17:21:53.410Z,35.08
2018-02-14T17:24:20.991Z,33.00
2018-02-14T17:26:48.531Z,49.58
2018-02-14T17:29:16.116Z,49.15
2018-02-14T17:31:43.716Z,37.78
2018-02-14T17:34:12.024Z,41.03
2018-02-14T17:36:39.611Z,62.08
2018-02-14T17:39:07.208Z,42.13
2018-02-14T17:41:35.544Z,63.38
2018-02-14T17:44:03.137Z,76.50
2018-02-14T17:46:31.439Z,49.20
2018-02-14T17:48:58.979Z,42.42
2018-02-14T17:51:27.335Z,44.13
2018-02-14T17:53:54.879Z,34.15
2018-02-14T17:56:22.481Z,37.50
2018-02-14T17:58:50.791Z,39.15
2018-02-14T18:01:18.382Z,31.80
2018-02-14T18:03:46.023Z,31.25
2018-02-14T18:06:13.631Z,32.97
2018-02-14T18:08:41.944Z,30.27
2018-02-14T18:11:09.522Z,34.10
2018-02-14T18:13:37.069Z,31.73
2018-02-14T18:16:04.656Z,33.88
2018-02-14T18:18:32.203Z,38.45
2018-02-14T18:20:59.775Z,35.58
2018-02-14T18:23:27.421Z,40.92
2018-02-14T18:25:55.013Z,42.05
2018-02-14T18:28:22.586Z,42.88
2018-02-14T18:30:50.957Z,41.22
2018-02-14T18:33:18.535Z,34.45
2018-02-14T18:35:46.878Z,42.05
2018-02-14T18:38:14.419Z,46.58
2018-02-14T18:40:42.015Z,41.88
2018-02-14T18:43:09.564Z,40.25
2018-02-14T18:45:37.148Z,40.33
2018-02-14T18:48:05.557Z,43.10
2018-02-14T18:50:33.138Z,45.22
2018-02-14T18:53:00.695Z,48.05
2018-02-14T18:55:28.284Z,47.45
2018-02-14T18:57:55.821Z,46.65
2018-02-14T19:00:23.439Z,48.60
2018-02-14T19:02:51.753Z,55.63
2018-02-14T19:05:19.339Z,50.30
2018-02-14T19:07:46.877Z,52.90
2018-02-14T19:10:14.491Z,47.00
2018-02-14T19:12:42.812Z,48.05
2018-02-14T19:15:10.407Z,50.78
2018-02-14T19:17:37.947Z,43.80
2018-02-14T19:20:05.527Z,46.42
2018-02-14T19:22:33.072Z,50.75
2018-02-14T19:25:00.663Z,46.55
2018-02-14T19:27:28.202Z,51.13
2018-02-14T19:29:55.796Z,71.75
2018-02-14T19:32:24.103Z,65.70
2018-02-14T19:34:51.680Z,44.33
2018-02-14T19:37:19.227Z,44.40
2018-02-14T19:39:46.821Z,36.88
2018-02-14T19:42:14.357Z,44.58
2018-02-14T19:44:41.944Z,48.58
2018-02-14T19:47:09.497Z,42.83
2018-02-14T19:49:37.092Z,40.53
2018-02-14T19:52:05.509Z,41.42
2018-02-14T19:54:33.092Z,41.22
2018-02-14T19:57:00.628Z,36.97
2018-02-14T19:59:28.223Z,42.33
2018-02-14T20:01:55.765Z,35.90
2018-02-14T20:04:23.343Z,37.95
2018-02-14T20:06:50.884Z,42.53
2018-02-14T20:09:18.465Z,37.85
2018-02-14T20:11:46.769Z,37.20
2018-02-14T20:14:15.190Z,37.85
2018-02-14T20:16:42.727Z,37.05
2018-02-14T20:19:10.306Z,38.00
2018-02-14T20:21:37.936Z,44.58
2018-02-14T20:24:05.525Z,47.75
2018-02-14T20:26:33.089Z,38.05
2018-02-14T20:29:00.679Z,38.95
2018-02-14T20:31:28.230Z,35.50
2018-02-14T20:33:55.839Z,38.28
2018-02-14T20:36:24.144Z,40.75
2018-02-14T20:38:51.688Z,34.58
2018-02-14T20:41:19.276Z,39.83
2018-02-14T20:43:46.808Z,36.63
2018-02-14T20:46:14.382Z,40.42
2018-02-14T20:48:41.976Z,39.30
2018-02-14T20:51:09.529Z,37.80
2018-02-14T20:53:37.125Z,44.35
2018-02-14T20:56:05.432Z,35.50
2018-02-14T20:58:33.018Z,41.30
2018-02-14T21:01:00.622Z,38.80
2018-02-14T21:03:28.921Z,37.72
2018-02-14T21:05:56.518Z,38.90
2018-02-14T21:08:24.064Z,37.85
2018-02-14T21:10:51.595Z,37.03
2018-02-14T21:13:19.160Z,38.20
2018-02-14T21:15:46.750Z,35.25
2018-02-14T21:18:14.294Z,33.75
2018-02-14T21:20:41.863Z,35.83
2018-02-14T21:23:09.431Z,34.03
2018-02-14T21:25:37.010Z,36.85
2018-02-14T21:28:04.565Z,33.30
2018-02-14T21:30:32.145Z,33.28
2018-02-14T21:32:59.689Z,32.53
2018-02-14T21:35:27.264Z,37.58
2018-02-14T21:37:54.835Z,32.17
2018-02-14T21:40:23.132Z,32.33
2018-02-14T21:42:50.704Z,33.22
2018-02-14T21:45:18.252Z,33.67
2018-02-14T21:47:45.827Z,28.87
2018-02-14T21:50:13.410Z,34.00
2018-02-14T21:52:40.946Z,44.80
2018-02-14T21:55:08.484Z,37.90
2018-02-14T21:57:36.051Z,43.25
2018-02-14T22:00:03.660Z,38.13
2018-02-14T22:02:31.203Z,39.83
2018-02-14T22:04:58.785Z,34.55
2018-02-14T22:07:26.522Z,32.58
2018-02-14T22:09:54.100Z,33.83
2018-02-14T22:12:21.687Z,31.52
2018-02-14T22:14:49.986Z,45.40
2018-02-14T22:17:17.555Z,30.12
2018-02-14T22:19:45.126Z,31.58
2018-02-14T22:22:12.663Z,29.37
2018-02-14T22:24:40.249Z,31.42
2018-02-14T22:27:07.783Z,33.40
2018-02-14T22:29:35.327Z,29.55
2018-02-14T22:32:03.672Z,30.05
2018-02-14T22:34:31.212Z,33.03
2018-02-14T22:36:58.808Z,30.33
2018-02-14T22:39:26.359Z,25.65
2018-02-14T22:41:53.900Z,29.08
2018-02-14T22:44:21.480Z,27.90
2018-02-14T22:46:49.043Z,29.70
2018-02-14T22:49:16.613Z,26.98
2018-02-14T22:51:44.919Z,26.15
2018-02-14T22:54:12.498Z,27.98
2018-02-14T22:56:40.030Z,23.35
2018-02-14T22:59:08.375Z,28.60
2018-02-14T23:01:35.914Z,30.98
2018-02-14T23:04:03.556Z,27.37
2018-02-14T23:06:31.086Z,28.67
2018-02-14T23:08:59.407Z,31.23
2018-02-14T23:11:26.987Z,27.85
2018-02-14T23:13:54.533Z,32.45
2018-02-14T23:16:22.125Z,29.58
2018-02-14T23:18:50.474Z,31.02
2018-02-14T23:21:18.049Z,25.65
2018-02-14T23:23:45.584Z,27.15
2018-02-14T23:26:13.167Z,27.62
2018-02-14T23:28:41.010Z,28.25
2018-02-14T23:31:08.575Z,25.35
2018-02-14T23:33:36.109Z,37.60
2018-02-14T23:36:03.680Z,28.12
2018-02-14T23:38:31.215Z,30.12
2018-02-14T23:40:58.798Z,27.10
2018-02-14T23:43:26.335Z,26.17
2018-02-14T23:45:53.916Z,25.58
2018-02-14T23:48:21.503Z,23.50
2018-02-14T23:50:49.038Z,29.37
2018-02-14T23:53:16.644Z,26.48
2018-02-14T23:55:44.187Z,24.60
2018-02-14T23:58:11.763Z,29.80
